Weather at Eleftherios Venizelos International Airport

Public forecast

Using degrees Celsius for public forecast. Weather courtesy of forecast.io.

Current aviation weather report (METAR) for Eleftherios Venizelos International Airport

Retrieved 2021/03/07 13:20 UTC (14 minutes ago):

LGAV 071320Z 03017KT 9999 SCT030 12/05 Q1023 NOSIG

Aviation forecast (TAF) for Eleftherios Venizelos International Airport

Retrieved 2021/03/07 12:12 UTC (1 hour ago):

TAF TAF LGAV 071100Z 0712/0812 02015KT 9999 FEW020 SCT030 TEMPO 0712/0718 02018G28KT TEMPO 0712/0716 SCT018 BKN025 BECMG 0718/0720 VRB05KT